createdAt,value
2022-11-17T00:02:10.977Z,77.80
2022-11-17T00:04:38.767Z,77.80
2022-11-17T00:07:07.889Z,77.80
2022-11-17T00:09:35.639Z,77.80
2022-11-17T00:12:22.919Z,77.80
2022-11-17T00:14:50.916Z,77.80
2022-11-17T00:17:18.690Z,77.80
2022-11-17T00:20:03.798Z,77.80
2022-11-17T00:22:33.063Z,77.80
2022-11-17T00:25:01.012Z,77.80
2022-11-17T00:27:28.768Z,77.80
2022-11-17T00:29:56.895Z,77.70
2022-11-17T00:32:42.147Z,77.80
2022-11-17T00:35:09.959Z,77.70
2022-11-17T00:38:01.991Z,77.70
2022-11-17T00:40:29.757Z,77.70
2022-11-17T00:42:57.514Z,77.70
2022-11-17T00:45:25.303Z,77.70
2022-11-17T00:47:53.032Z,77.70
2022-11-17T00:50:20.765Z,77.70
2022-11-17T00:52:49.856Z,77.70
2022-11-17T00:55:17.756Z,77.60
2022-11-17T00:57:45.538Z,77.60
2022-11-17T01:00:14.011Z,77.70
2022-11-17T01:02:41.756Z,77.70
2022-11-17T01:05:09.961Z,77.70
2022-11-17T01:07:37.799Z,77.70
2022-11-17T01:10:08.127Z,77.60
2022-11-17T01:12:35.835Z,77.70
2022-11-17T01:15:03.678Z,77.60
2022-11-17T01:17:31.441Z,77.70
2022-11-17T01:19:59.160Z,77.60
2022-11-17T01:22:26.893Z,77.60
2022-11-17T01:24:54.636Z,77.60
2022-11-17T01:27:23.713Z,77.60
2022-11-17T01:29:51.416Z,77.60
2022-11-17T01:32:19.176Z,77.60
2022-11-17T01:34:47.662Z,77.60
2022-11-17T01:37:21.404Z,77.60
2022-11-17T01:39:49.647Z,77.60
2022-11-17T01:42:19.140Z,77.60
2022-11-17T01:45:05.576Z,77.60
2022-11-17T01:47:43.629Z,77.60
2022-11-17T01:50:20.296Z,77.60
2022-11-17T01:52:49.613Z,77.50
2022-11-17T01:55:20.699Z,77.60
2022-11-17T01:57:54.559Z,77.50
2022-11-17T02:00:24.753Z,77.50
2022-11-17T02:02:53.143Z,77.50
2022-11-17T02:05:38.665Z,77.50
2022-11-17T02:08:07.389Z,77.50
2022-11-17T02:10:36.033Z,77.50
2022-11-17T02:13:03.957Z,77.50
2022-11-17T02:15:33.021Z,77.50
2022-11-17T02:18:01.550Z,77.50
2022-11-17T02:20:42.733Z,77.40
2022-11-17T02:23:46.263Z,77.50
2022-11-17T02:26:33.312Z,77.50
2022-11-17T02:29:10.853Z,77.50
2022-11-17T02:31:46.781Z,77.40
2022-11-17T02:34:27.253Z,77.40
2022-11-17T02:36:58.708Z,77.40
2022-11-17T02:39:32.856Z,77.40
2022-11-17T02:42:09.304Z,77.50
2022-11-17T02:44:44.445Z,77.50
2022-11-17T02:47:16.717Z,77.40
2022-11-17T02:49:48.690Z,77.40
2022-11-17T02:52:18.132Z,77.40
2022-11-17T02:54:45.840Z,77.40
2022-11-17T02:57:28.698Z,77.40
2022-11-17T02:59:59.132Z,77.40
2022-11-17T03:02:52.852Z,77.40
2022-11-17T03:05:27.804Z,77.40
2022-11-17T03:08:08.769Z,77.40
2022-11-17T03:10:49.151Z,77.40
2022-11-17T03:13:21.874Z,77.40
2022-11-17T03:15:56.019Z,77.40
2022-11-17T03:18:30.087Z,77.30
2022-11-17T03:21:06.987Z,77.30
2022-11-17T03:23:42.171Z,77.40
2022-11-17T03:26:13.906Z,77.30
2022-11-17T03:28:44.760Z,77.30
2022-11-17T03:31:15.780Z,77.30
2022-11-17T03:33:48.035Z,77.30
2022-11-17T03:36:19.070Z,77.30
2022-11-17T03:38:52.484Z,77.30
2022-11-17T03:41:23.042Z,77.30
2022-11-17T03:43:53.216Z,77.30
2022-11-17T03:46:24.055Z,77.30
2022-11-17T03:48:56.392Z,77.30
2022-11-17T03:51:27.161Z,77.30
2022-11-17T03:53:55.475Z,77.30
2022-11-17T03:56:35.359Z,77.30
2022-11-17T03:59:07.425Z,77.30
2022-11-17T04:01:37.652Z,77.30
2022-11-17T04:04:05.807Z,77.30
2022-11-17T04:06:33.544Z,77.30
2022-11-17T04:09:01.284Z,77.30
2022-11-17T04:11:46.461Z,77.30
2022-11-17T04:14:31.912Z,77.30
2022-11-17T04:17:01.031Z,77.20
2022-11-17T04:19:28.740Z,77.20
2022-11-17T04:21:56.466Z,77.20
2022-11-17T04:24:24.350Z,77.30
2022-11-17T04:27:09.723Z,77.30
2022-11-17T04:29:37.456Z,77.30
2022-11-17T04:32:06.668Z,77.30
2022-11-17T04:34:34.403Z,77.20
2022-11-17T04:37:07.970Z,77.20
2022-11-17T04:39:38.686Z,77.20
2022-11-17T04:42:05.502Z,77.20
2022-11-17T04:44:33.506Z,77.20
2022-11-17T04:47:02.945Z,77.20
2022-11-17T04:49:32.934Z,77.20
2022-11-17T04:52:00.928Z,77.20
2022-11-17T04:54:28.835Z,77.20
2022-11-17T04:56:57.261Z,77.10
2022-11-17T04:59:25.352Z,77.30
2022-11-17T05:01:53.141Z,77.30
2022-11-17T05:04:36.063Z,77.30
2022-11-17T05:07:05.458Z,77.40
2022-11-17T05:09:33.511Z,77.40
2022-11-17T05:12:18.860Z,77.50
2022-11-17T05:14:48.935Z,77.50
2022-11-17T05:17:16.364Z,77.60
2022-11-17T05:19:45.971Z,77.60
2022-11-17T05:22:34.173Z,77.50
2022-11-17T05:25:01.924Z,77.60
2022-11-17T05:27:29.867Z,77.60
2022-11-17T05:29:57.579Z,77.80
2022-11-17T05:32:25.314Z,77.80
2022-11-17T05:34:53.058Z,77.80
2022-11-17T05:37:22.094Z,77.70
2022-11-17T05:39:49.826Z,77.70
2022-11-17T05:42:17.566Z,77.60
2022-11-17T05:44:46.286Z,77.70
2022-11-17T05:47:14.010Z,77.60
2022-11-17T05:49:41.744Z,77.60
2022-11-17T05:52:09.509Z,77.60
2022-11-17T05:54:38.748Z,77.60
2022-11-17T05:57:10.463Z,77.60
2022-11-17T05:59:43.597Z,77.60
2022-11-17T06:02:16.211Z,77.50
2022-11-17T06:04:46.121Z,77.50
2022-11-17T06:07:14.092Z,77.50
2022-11-17T06:09:43.488Z,77.50
2022-11-17T06:12:12.690Z,77.50
2022-11-17T06:14:40.565Z,77.80
2022-11-17T06:17:11.705Z,77.90
2022-11-17T06:19:43.933Z,78.00
2022-11-17T06:22:13.361Z,77.90
2022-11-17T06:24:43.655Z,78.00
2022-11-17T06:27:12.608Z,77.90
2022-11-17T06:29:44.364Z,78.00
2022-11-17T06:32:13.734Z,78.00
2022-11-17T06:34:42.151Z,78.00
2022-11-17T06:37:11.174Z,78.00
2022-11-17T06:39:38.949Z,78.00
2022-11-17T06:42:08.094Z,78.00
2022-11-17T06:44:35.824Z,78.00
2022-11-17T06:47:03.575Z,78.00
2022-11-17T06:49:31.278Z,78.00
2022-11-17T06:51:59.001Z,77.90
2022-11-17T06:54:26.716Z,77.80
2022-11-17T06:56:55.289Z,77.80
2022-11-17T06:59:24.349Z,77.80
2022-11-17T07:01:52.071Z,77.80
2022-11-17T07:04:19.764Z,77.80
2022-11-17T07:06:47.509Z,77.80
2022-11-17T07:09:15.249Z,77.80
2022-11-17T07:11:43.005Z,77.80
2022-11-17T07:14:10.892Z,77.70
2022-11-17T07:16:42.692Z,77.70
2022-11-17T07:19:10.731Z,77.70
2022-11-17T07:21:38.477Z,77.60
2022-11-17T07:24:06.694Z,77.60
2022-11-17T07:26:34.410Z,77.50
2022-11-17T07:29:02.156Z,77.50
2022-11-17T07:31:29.874Z,77.40
2022-11-17T07:33:59.455Z,77.40
2022-11-17T07:36:27.180Z,77.30
2022-11-17T07:38:54.961Z,77.30
2022-11-17T07:41:22.695Z,77.20
2022-11-17T07:43:50.450Z,77.20
2022-11-17T07:46:18.213Z,77.10
2022-11-17T07:48:46.234Z,77.10
2022-11-17T07:51:17.042Z,77.10
2022-11-17T07:53:44.790Z,77.10
2022-11-17T07:56:12.675Z,77.00
2022-11-17T07:58:41.309Z,77.00
2022-11-17T08:01:11.072Z,77.00
2022-11-17T08:03:38.950Z,77.00
2022-11-17T08:06:09.242Z,76.90
2022-11-17T08:08:39.633Z,76.90
2022-11-17T08:11:09.617Z,76.90
2022-11-17T08:13:38.262Z,76.80
2022-11-17T08:16:06.968Z,76.80
2022-11-17T08:18:35.651Z,76.80
2022-11-17T08:21:04.405Z,76.80
2022-11-17T08:23:33.396Z,76.80
2022-11-17T08:26:03.399Z,76.70
2022-11-17T08:28:31.174Z,76.70
2022-11-17T08:31:01.572Z,76.70
2022-11-17T08:33:29.573Z,76.70
2022-11-17T08:35:58.050Z,76.70
2022-11-17T08:38:28.812Z,76.70
2022-11-17T08:40:56.818Z,76.70
2022-11-17T08:43:26.250Z,76.70
2022-11-17T08:45:54.107Z,76.70
2022-11-17T08:48:22.296Z,76.60
2022-11-17T08:50:51.502Z,76.30
2022-11-17T08:53:21.159Z,74.30
2022-11-17T08:55:49.410Z,72.60
2022-11-17T08:58:17.684Z,71.30
2022-11-17T09:00:47.292Z,70.60
2022-11-17T09:03:15.309Z,70.10
2022-11-17T09:05:44.902Z,69.90
2022-11-17T09:08:45.014Z,69.50
2022-11-17T09:11:05.559Z,69.40
2022-11-17T09:13:33.594Z,69.50
2022-11-17T09:16:03.604Z,69.60
2022-11-17T09:18:31.577Z,70.00
2022-11-17T09:21:02.735Z,70.40
2022-11-17T09:23:31.599Z,70.80
2022-11-17T09:25:59.508Z,71.00
2022-11-17T09:28:27.917Z,71.10
2022-11-17T09:30:55.720Z,71.30
2022-11-17T09:33:24.826Z,71.30
2022-11-17T09:35:52.563Z,71.40
2022-11-17T09:38:20.288Z,71.50
2022-11-17T09:40:48.077Z,71.50
2022-11-17T09:43:26.580Z,71.60
2022-11-17T09:46:01.885Z,71.70
2022-11-17T09:48:42.257Z,71.80
2022-11-17T09:51:14.630Z,71.90
2022-11-17T09:53:48.997Z,72.00
2022-11-17T09:56:17.683Z,72.00
2022-11-17T09:58:49.616Z,72.10
2022-11-17T10:01:19.890Z,72.20
2022-11-17T10:03:51.409Z,72.30
2022-11-17T10:06:22.247Z,72.30
2022-11-17T10:08:58.061Z,72.40
2022-11-17T10:11:33.020Z,72.50
2022-11-17T10:14:04.873Z,72.50
2022-11-17T10:16:32.650Z,72.50
2022-11-17T10:19:03.246Z,72.60
2022-11-17T10:21:31.607Z,72.60
2022-11-17T10:24:00.416Z,72.70
2022-11-17T10:26:28.180Z,72.80
2022-11-17T10:29:09.891Z,72.80
2022-11-17T10:31:42.716Z,72.90
2022-11-17T10:34:13.292Z,72.90
2022-11-17T10:36:48.796Z,72.90
2022-11-17T10:39:37.319Z,73.00
2022-11-17T10:42:22.034Z,73.00
2022-11-17T10:44:52.960Z,73.00
2022-11-17T10:47:29.495Z,73.10
2022-11-17T10:50:18.416Z,73.10
2022-11-17T10:52:46.623Z,73.20
2022-11-17T10:55:29.135Z,73.20
2022-11-17T10:58:00.661Z,73.30
2022-11-17T11:00:31.774Z,73.30
2022-11-17T11:03:17.320Z,73.40
2022-11-17T11:06:01.990Z,73.50
2022-11-17T11:08:44.748Z,73.50
2022-11-17T11:11:21.364Z,73.50
2022-11-17T11:13:54.709Z,73.60
2022-11-17T11:16:22.620Z,73.70
2022-11-17T11:18:51.693Z,73.70
2022-11-17T11:21:30.352Z,73.80
2022-11-17T11:24:07.140Z,73.80
2022-11-17T11:26:47.979Z,73.80
2022-11-17T11:29:26.067Z,73.90
2022-11-17T11:32:06.295Z,73.90
2022-11-17T11:35:06.833Z,73.90
2022-11-17T11:37:44.313Z,74.00
2022-11-17T11:40:21.713Z,74.00
2022-11-17T11:42:57.611Z,74.00
2022-11-17T11:45:39.628Z,74.00
2022-11-17T11:48:16.958Z,74.10
2022-11-17T11:50:52.914Z,74.10
2022-11-17T11:53:29.570Z,74.20
2022-11-17T11:56:08.384Z,74.10
2022-11-17T11:58:41.414Z,74.10
2022-11-17T12:01:11.984Z,74.20
2022-11-17T12:03:48.693Z,74.10
2022-11-17T12:06:41.528Z,74.20
2022-11-17T12:09:27.152Z,74.20
2022-11-17T12:12:01.490Z,74.20
2022-11-17T12:14:30.974Z,74.20
2022-11-17T12:17:05.766Z,74.20
2022-11-17T12:19:55.360Z,74.20
2022-11-17T12:23:03.008Z,74.30
2022-11-17T12:25:35.798Z,74.30
2022-11-17T12:28:29.191Z,74.30
2022-11-17T12:31:00.921Z,74.30
2022-11-17T12:34:17.883Z,74.30
2022-11-17T12:37:20.069Z,74.30
2022-11-17T12:39:59.885Z,74.30
2022-11-17T12:42:28.274Z,74.30
2022-11-17T12:45:04.253Z,74.30
2022-11-17T12:47:33.671Z,74.30
2022-11-17T12:50:31.674Z,74.30
2022-11-17T12:53:27.350Z,74.30
2022-11-17T12:56:19.928Z,74.30
2022-11-17T12:58:59.206Z,74.30
2022-11-17T13:01:38.878Z,74.30
2022-11-17T13:04:12.184Z,74.30
2022-11-17T13:06:58.380Z,74.30
2022-11-17T13:09:29.411Z,74.30
2022-11-17T13:12:01.945Z,74.30
2022-11-17T13:14:32.002Z,74.30
2022-11-17T13:17:01.076Z,74.30
2022-11-17T13:19:35.151Z,74.30
2022-11-17T13:22:05.570Z,74.30
2022-11-17T13:24:36.519Z,74.30
2022-11-17T13:27:07.937Z,74.30
2022-11-17T13:29:35.847Z,74.30
2022-11-17T13:32:14.149Z,74.30
2022-11-17T13:34:50.580Z,74.30
2022-11-17T13:37:20.904Z,74.30
2022-11-17T13:39:58.252Z,74.30
2022-11-17T13:42:28.477Z,74.40
2022-11-17T13:44:58.917Z,74.30
2022-11-17T13:47:43.358Z,74.40
2022-11-17T13:50:34.285Z,74.40
2022-11-17T13:53:03.664Z,74.40
2022-11-17T13:55:33.012Z,74.30
2022-11-17T13:58:04.158Z,74.40
2022-11-17T14:00:32.936Z,74.30
2022-11-17T14:03:03.035Z,74.30
2022-11-17T14:05:32.375Z,74.30
2022-11-17T14:08:12.768Z,74.30
2022-11-17T14:10:42.579Z,74.30
2022-11-17T14:13:22.706Z,74.30
2022-11-17T14:15:57.655Z,74.30
2022-11-17T14:18:30.437Z,74.30
2022-11-17T14:21:10.014Z,74.40
2022-11-17T14:23:38.174Z,75.20
2022-11-17T14:26:14.406Z,74.40
2022-11-17T14:28:42.120Z,74.40
2022-11-17T14:31:13.270Z,74.40
2022-11-17T14:33:41.240Z,74.40
2022-11-17T14:36:12.612Z,74.40
2022-11-17T14:38:40.673Z,74.40
2022-11-17T14:41:09.871Z,74.50
2022-11-17T14:43:37.738Z,74.50
2022-11-17T14:46:05.639Z,74.40
2022-11-17T14:48:33.408Z,74.40
2022-11-17T14:51:01.422Z,74.40
2022-11-17T14:53:29.155Z,74.40
2022-11-17T14:55:56.912Z,74.50
2022-11-17T14:58:25.986Z,74.40
2022-11-17T15:00:53.720Z,74.40
2022-11-17T15:03:21.526Z,74.40
2022-11-17T15:05:49.703Z,74.40
2022-11-17T15:08:17.449Z,74.50
2022-11-17T15:10:46.685Z,74.40
2022-11-17T15:13:14.428Z,74.50
2022-11-17T15:15:43.571Z,74.50
2022-11-17T15:18:12.365Z,74.50
2022-11-17T15:20:40.111Z,74.50
2022-11-17T15:23:08.124Z,74.50
2022-11-17T15:25:38.675Z,74.50
2022-11-17T15:28:06.566Z,74.60
2022-11-17T15:30:34.468Z,74.60
2022-11-17T15:33:03.527Z,74.60
2022-11-17T15:35:31.499Z,74.60
2022-11-17T15:37:59.212Z,74.60
2022-11-17T15:40:26.982Z,74.60
2022-11-17T15:42:54.920Z,74.60
2022-11-17T15:45:22.688Z,74.60
2022-11-17T15:47:50.590Z,74.50
2022-11-17T15:50:20.196Z,74.50
2022-11-17T15:53:03.605Z,74.60
2022-11-17T15:55:34.135Z,74.50
2022-11-17T15:58:01.877Z,74.50
2022-11-17T16:00:29.691Z,74.50
2022-11-17T16:02:58.850Z,74.50
2022-11-17T16:05:28.035Z,74.50
2022-11-17T16:07:55.758Z,74.50
2022-11-17T16:10:23.478Z,74.40
2022-11-17T16:12:51.239Z,74.40
2022-11-17T16:15:18.964Z,74.40
2022-11-17T16:17:46.694Z,74.40
2022-11-17T16:20:15.242Z,74.50
2022-11-17T16:22:44.389Z,74.50
2022-11-17T16:25:12.110Z,74.50
2022-11-17T16:27:39.923Z,74.30
2022-11-17T16:30:08.668Z,74.20
2022-11-17T16:32:36.378Z,74.10
2022-11-17T16:35:04.285Z,74.10
2022-11-17T16:37:32.047Z,74.00
2022-11-17T16:40:01.740Z,74.10
2022-11-17T16:42:29.453Z,74.10
2022-11-17T16:44:57.254Z,74.30
2022-11-17T16:47:25.104Z,74.10
2022-11-17T16:49:52.819Z,74.20
2022-11-17T16:52:20.523Z,74.20
2022-11-17T16:54:48.252Z,74.30
2022-11-17T16:57:17.298Z,74.30
2022-11-17T16:59:45.233Z,74.30
2022-11-17T17:02:13.440Z,74.30
2022-11-17T17:04:41.193Z,74.30
2022-11-17T17:07:08.987Z,74.40
2022-11-17T17:09:37.742Z,74.50
2022-11-17T17:12:06.226Z,74.90
2022-11-17T17:14:35.297Z,75.50
2022-11-17T17:17:03.014Z,76.00
2022-11-17T17:19:30.744Z,76.20
2022-11-17T17:21:58.690Z,76.50
2022-11-17T17:24:26.438Z,76.60
2022-11-17T17:26:54.162Z,76.60
2022-11-17T17:29:22.005Z,76.70
2022-11-17T17:31:51.060Z,76.70
2022-11-17T17:34:18.951Z,76.80
2022-11-17T17:36:46.735Z,76.80
2022-11-17T17:39:16.141Z,76.80
2022-11-17T17:41:45.662Z,76.80
2022-11-17T17:44:16.221Z,76.90
2022-11-17T17:46:44.299Z,76.80
2022-11-17T17:49:14.118Z,76.80
2022-11-17T17:51:44.004Z,76.90
2022-11-17T17:54:16.680Z,76.80
2022-11-17T17:56:44.749Z,76.80
2022-11-17T17:59:13.228Z,76.80
2022-11-17T18:01:42.125Z,76.70
2022-11-17T18:04:15.506Z,76.60
2022-11-17T18:06:47.394Z,76.50
2022-11-17T18:09:18.794Z,76.50
2022-11-17T18:11:49.370Z,76.40
2022-11-17T18:14:20.232Z,76.40
2022-11-17T18:16:48.065Z,76.40
2022-11-17T18:19:16.668Z,76.40
2022-11-17T18:21:45.931Z,76.40
2022-11-17T18:24:13.909Z,76.30
2022-11-17T18:26:42.395Z,76.30
2022-11-17T18:29:15.777Z,76.20
2022-11-17T18:31:46.444Z,76.20
2022-11-17T18:34:16.292Z,76.20
2022-11-17T18:36:45.448Z,76.20
2022-11-17T18:39:14.515Z,76.20
2022-11-17T18:41:42.649Z,76.10
2022-11-17T18:44:12.681Z,76.20
2022-11-17T18:46:40.446Z,76.20
2022-11-17T18:49:08.182Z,76.20
2022-11-17T18:51:36.160Z,76.20
2022-11-17T18:54:05.588Z,76.20
2022-11-17T18:56:35.059Z,76.20
2022-11-17T18:59:03.195Z,76.20
2022-11-17T19:01:31.675Z,76.30
2022-11-17T19:04:01.156Z,76.30
2022-11-17T19:06:29.529Z,76.30
2022-11-17T19:08:59.352Z,76.30
2022-11-17T19:11:30.597Z,76.30
2022-11-17T19:14:02.008Z,76.30
2022-11-17T19:16:31.651Z,76.30
2022-11-17T19:19:00.131Z,76.30
2022-11-17T19:21:29.730Z,76.30
2022-11-17T19:23:59.914Z,76.40
2022-11-17T19:26:30.134Z,76.40
2022-11-17T19:28:59.166Z,76.40
2022-11-17T19:31:28.136Z,76.40
2022-11-17T19:33:57.700Z,76.40
2022-11-17T19:36:27.215Z,76.70
2022-11-17T19:38:56.269Z,77.40
2022-11-17T19:41:25.864Z,77.90
2022-11-17T19:43:55.875Z,78.20
2022-11-17T19:46:25.487Z,78.50
2022-11-17T19:48:53.504Z,78.80
2022-11-17T19:51:22.900Z,79.00
2022-11-17T19:53:52.204Z,79.10
2022-11-17T19:56:20.571Z,79.30
2022-11-17T19:58:49.655Z,79.50
2022-11-17T20:01:21.923Z,79.50
2022-11-17T20:03:50.586Z,79.50
2022-11-17T20:06:21.420Z,79.50
2022-11-17T20:08:49.465Z,79.60
2022-11-17T20:11:20.434Z,79.60
2022-11-17T20:13:49.119Z,79.60
2022-11-17T20:16:19.632Z,80.30
2022-11-17T20:18:50.983Z,79.50
2022-11-17T20:21:18.802Z,79.50
2022-11-17T20:23:47.495Z,79.40
2022-11-17T20:26:17.028Z,79.30
2022-11-17T20:28:45.394Z,79.20
2022-11-17T20:31:14.867Z,79.10
2022-11-17T20:33:44.626Z,79.10
2022-11-17T20:36:14.479Z,79.00
2022-11-17T20:38:42.227Z,78.90
2022-11-17T20:41:10.205Z,78.80
2022-11-17T20:43:38.079Z,78.80
2022-11-17T20:46:06.309Z,78.70
2022-11-17T20:48:35.337Z,78.70
2022-11-17T20:51:06.664Z,78.60
2022-11-17T20:53:35.165Z,78.60
2022-11-17T20:56:05.807Z,78.50
2022-11-17T20:58:34.034Z,78.50
2022-11-17T21:01:08.222Z,78.40
2022-11-17T21:03:36.379Z,78.30
2022-11-17T21:06:06.451Z,78.20
2022-11-17T21:08:35.890Z,78.30
2022-11-17T21:11:05.949Z,78.20
2022-11-17T21:13:35.256Z,78.20
2022-11-17T21:16:08.573Z,78.20
2022-11-17T21:18:37.907Z,78.20
2022-11-17T21:21:09.357Z,78.20
2022-11-17T21:23:38.047Z,78.20
2022-11-17T21:26:06.695Z,78.20
2022-11-17T21:28:34.658Z,78.10
2022-11-17T21:31:09.656Z,78.10
2022-11-17T21:33:37.987Z,78.10
2022-11-17T21:36:09.439Z,78.10
2022-11-17T21:38:37.497Z,78.10
2022-11-17T21:41:06.757Z,78.10
2022-11-17T21:43:37.363Z,78.10
2022-11-17T21:46:06.775Z,78.10
2022-11-17T21:48:35.088Z,78.10
2022-11-17T21:51:03.057Z,78.10
2022-11-17T21:53:32.328Z,78.00
2022-11-17T21:56:03.662Z,78.00
2022-11-17T21:58:31.580Z,78.00
2022-11-17T22:00:59.533Z,77.80
2022-11-17T22:03:27.501Z,77.80
2022-11-17T22:06:01.003Z,77.80
2022-11-17T22:08:29.928Z,77.80
2022-11-17T22:11:03.430Z,77.80
2022-11-17T22:13:31.161Z,77.80
2022-11-17T22:16:03.989Z,77.80
2022-11-17T22:18:31.847Z,77.70
2022-11-17T22:20:59.711Z,77.70
2022-11-17T22:23:29.161Z,77.80
2022-11-17T22:25:57.895Z,77.70
2022-11-17T22:28:27.842Z,77.70
2022-11-17T22:30:56.307Z,77.70
2022-11-17T22:33:24.589Z,77.70
2022-11-17T22:35:52.455Z,77.70
2022-11-17T22:38:20.224Z,77.70
2022-11-17T22:40:47.956Z,77.70
2022-11-17T22:43:15.768Z,77.70
2022-11-17T22:45:44.879Z,77.70
2022-11-17T22:48:12.633Z,77.70
2022-11-17T22:50:40.345Z,77.70
2022-11-17T22:53:08.192Z,77.70
2022-11-17T22:55:36.062Z,77.70
2022-11-17T22:58:03.782Z,77.70
2022-11-17T23:00:32.341Z,77.70
2022-11-17T23:03:01.416Z,77.60
2022-11-17T23:05:29.179Z,77.80
2022-11-17T23:07:56.988Z,77.60
2022-11-17T23:10:24.868Z,77.60
2022-11-17T23:12:52.590Z,77.60
2022-11-17T23:15:20.375Z,77.60
2022-11-17T23:17:49.621Z,77.50
2022-11-17T23:20:18.868Z,77.50
2022-11-17T23:22:46.631Z,77.50
2022-11-17T23:25:14.339Z,77.60
2022-11-17T23:27:42.087Z,77.50
2022-11-17T23:30:10.847Z,77.40
2022-11-17T23:32:38.612Z,77.40
2022-11-17T23:35:07.144Z,77.50
2022-11-17T23:37:36.210Z,77.50
2022-11-17T23:40:04.096Z,77.40
2022-11-17T23:42:32.852Z,77.50
2022-11-17T23:45:01.164Z,77.50
2022-11-17T23:47:28.904Z,77.50
2022-11-17T23:49:56.716Z,77.50
2022-11-17T23:52:24.448Z,77.40
2022-11-17T23:54:53.512Z,77.40
2022-11-17T23:57:21.385Z,77.50
2022-11-17T23:59:49.144Z,77.60
